Pass Lake, Canada
Current Conditions -  °F | °C
As of 12:00 AM on Sunday 26 Oct 2014 (Local Time) from CYQT Reporting Station
Clear Clear  
Wind Chill: 40°   Ceiling: Unl
Heat Index: 46°   Visibility: 15mi
Dew Point: 28°   Wind: 14mph
Humidity: 50%   Direction: 300°WNW
Pressure: 29.85"   Gusts: NA
Location:  48.57°N, 88.73°W
Report Text: CYQT 260400Z 30012KT 15SM SKC 08/M02 A2985 RMK SLP112
Loading
Personal Weather Stations






























Interactive Weather Map
Tropical Storm Tracking
New forecast layout! Learn more

10-Day Weather Forecast

Advertisements
Track Severe Weather on mobile